Time;durP1;ratioP1;P1;durP2;ratioP2;P2;SDS_P1;SDS_P2;PMS_P1;PMS_P2;Temp;Humidity;BMP_temperature;BMP_pressure;BME280_temperature;BME280_humidity;BME280_pressure;Samples;Min_cycle;Max_cycle;Signal;HPM_P1;HPM_P2
2022/05/26 00:04:03;;;;;;;12.60;10.50;;;;;;;11.80;79.48;98671.27;433678;1270;107314;-40
2022/05/26 00:14:12;;;;;;;13.20;10.70;;;;;;;11.75;79.58;98661.81;433711;1268;96173;-42
2022/05/26 00:24:19;;;;;;;11.80;10.20;;;;;;;11.70;79.62;98657.80;433469;1271;108865;-40
2022/05/26 00:34:26;;;;;;;11.20;9.70;;;;;;;11.59;79.49;98654.42;433838;1268;96152;-41
2022/05/26 00:44:35;;;;;;;12.00;10.40;;;;;;;11.54;79.64;98656.75;433506;1270;109770;-40
2022/05/26 00:54:44;;;;;;;13.20;11.40;;;;;;;11.52;79.85;98661.85;433672;1270;108746;-41
2022/05/26 01:04:54;;;;;;;16.80;13.00;;;;;;;11.44;79.84;98664.17;433497;1270;95698;-43
2022/05/26 01:15:06;;;;;;;15.30;11.60;;;;;;;11.37;79.64;98663.20;433593;1267;109621;-42
2022/05/26 01:25:34;;;;;;;14.00;11.00;;;;;;;11.16;79.47;98657.58;433546;1269;108636;-40
2022/05/26 01:35:47;;;;;;;16.80;12.20;;;;;;;11.09;79.86;98654.08;433800;1267;96136;-40
2022/05/26 01:46:01;;;;;;;15.30;11.80;;;;;;;11.17;79.83;98658.14;433538;1269;109264;-41
2022/05/26 01:56:06;;;;;;;17.00;11.20;;;;;;;11.14;79.76;98656.20;433563;1271;96149;-40
2022/05/26 02:06:12;;;;;;;18.90;11.70;;;;;;;11.11;79.89;98660.89;433902;1268;110323;-43
2022/05/26 02:16:22;;;;;;;13.00;10.60;;;;;;;11.08;79.75;98659.09;433828;1268;108859;-42
2022/05/26 02:26:30;;;;;;;13.60;10.90;;;;;;;11.03;79.79;98661.36;433615;1270;98025;-40
2022/05/26 02:36:39;;;;;;;14.50;11.50;;;;;;;10.97;79.81;98669.83;433720;1268;107791;-40
2022/05/26 02:46:58;;;;;;;15.50;10.90;;;;;;;10.98;79.91;98674.53;433508;1269;98003;-40
2022/05/26 03:07:31;;;;;;;16.10;11.20;;;;;;;11.08;79.90;98669.61;433689;1268;108741;-40
2022/05/26 03:17:39;;;;;;;17.80;12.10;;;;;;;11.14;80.03;98667.36;433635;1270;97483;-39
2022/05/26 03:27:46;;;;;;;16.60;13.20;;;;;;;11.19;79.94;98666.95;433640;1271;108988;-40
2022/05/26 03:48:18;;;;;;;12.90;10.90;;;;;;;11.44;79.69;98673.23;433685;1268;110746;-39
2022/05/26 03:58:26;;;;;;;13.50;10.60;;;;;;;11.57;79.77;98677.63;433596;1268;108800;-43
2022/05/26 04:08:33;;;;;;;15.30;11.80;;;;;;;11.50;79.75;98679.56;433763;1268;98023;-42
2022/05/26 04:18:40;;;;;;;12.80;11.00;;;;;;;11.46;79.90;98677.36;433594;1271;111025;-40
2022/05/26 04:28:47;;;;;;;13.70;10.60;;;;;;;11.57;79.90;98678.05;433530;1270;108738;-40
2022/05/26 04:38:56;;;;;;;14.90;10.10;;;;;;;11.81;79.89;98683.56;433529;1270;97978;-41
2022/05/26 04:49:03;;;;;;;25.50;15.30;;;;;;;12.29;79.76;98690.34;433880;1268;108802;-40
2022/05/26 04:59:10;;;;;;;18.80;12.00;;;;;;;13.81;79.68;98681.26;433745;1271;97993;-42
2022/05/26 05:09:18;;;;;;;12.90;11.40;;;;;;;15.15;78.43;98683.27;433598;1271;111309;-39
2022/05/26 05:19:25;;;;;;;21.10;11.70;;;;;;;15.89;77.71;98683.79;432976;1271;109157;-41
2022/05/26 05:29:35;;;;;;;12.80;10.00;;;;;;;17.00;77.82;98688.70;433126;1270;97919;-43
2022/05/26 05:39:42;;;;;;;12.80;8.00;;;;;;;18.54;76.67;98683.77;433589;1268;110316;-40
2022/05/26 05:49:50;;;;;;;7.70;6.30;;;;;;;19.51;74.65;98693.80;433695;1270;108761;-40
2022/05/26 05:59:58;;;;;;;6.70;5.80;;;;;;;19.67;72.76;98694.13;433756;1268;98022;-40
2022/05/26 06:20:13;;;;;;;7.50;4.00;;;;;;;19.38;71.39;98691.42;433746;1268;97890;-40
2022/05/26 06:30:22;;;;;;;4.00;3.60;;;;;;;20.09;70.21;98696.17;433601;1269;98581;-39
2022/05/26 06:40:31;;;;;;;5.40;3.30;;;;;;;20.96;69.44;98701.17;433803;1268;110638;-39
2022/05/26 06:50:41;;;;;;;4.70;2.80;;;;;;;21.84;67.29;98697.58;433872;1268;107276;-40
2022/05/26 07:00:48;;;;;;;3.70;2.70;;;;;;;21.88;65.06;98704.95;433663;1268;97909;-41
2022/05/26 07:10:54;;;;;;;;;;;;;;;21.50;64.59;98709.47;433684;1268;108767;-41
2022/05/26 07:21:06;;;;;;;4.00;3.10;;;;;;;20.97;64.08;98714.14;433485;1269;98089;-41
2022/05/26 07:31:15;;;;;;;4.90;2.10;;;;;;;20.52;63.68;98717.81;433951;1268;111814;-41
2022/05/26 07:41:25;;;;;;;5.50;2.20;;;;;;;20.37;63.11;98725.91;433638;1268;108842;-42
2022/05/26 07:51:32;;;;;;;2.30;2.10;;;;;;;20.58;63.15;98719.61;433759;1268;96699;-40
2022/05/26 08:01:40;;;;;;;6.30;2.30;;;;;;;20.63;62.01;98719.91;433407;1271;109574;-40
2022/05/26 08:11:48;;;;;;;2.00;1.80;;;;;;;20.71;61.49;98721.29;433473;1268;97900;-39
2022/05/26 08:21:56;;;;;;;5.30;1.40;;;;;;;21.14;60.88;98722.23;433778;1271;111144;-42
2022/05/26 08:32:03;;;;;;;2.70;1.20;;;;;;;21.28;59.50;98723.34;433614;1267;108808;-39
2022/05/26 08:42:11;;;;;;;3.20;1.00;;;;;;;21.78;58.96;98725.48;433632;1268;96666;-39
2022/05/26 08:52:20;;;;;;;6.70;1.40;;;;;;;22.29;57.72;98720.02;433672;1268;111016;-42
2022/05/26 09:02:25;;;;;;;2.00;1.20;;;;;;;22.27;56.49;98716.94;433490;1271;108273;-42
2022/05/26 09:23:11;;;;;;;6.20;1.60;;;;;;;22.21;53.12;98719.76;433386;1268;423345;-40
2022/05/26 09:33:27;;;;;;;2.30;0.90;;;;;;;21.96;51.40;98721.09;434063;1268;108681;-42
2022/05/26 09:43:39;;;;;;;5.40;0.90;;;;;;;22.12;51.03;98715.34;434305;1268;97984;-40
2022/05/26 09:53:48;;;;;;;4.20;1.40;;;;;;;22.41;49.77;98712.89;434293;1268;112007;-41
2022/05/26 10:03:58;;;;;;;2.30;0.90;;;;;;;22.52;48.16;98716.02;434154;1267;107542;-40
2022/05/26 10:14:13;;;;;;;1.00;0.90;;;;;;;22.51;47.32;98725.91;434194;1268;97905;-41
2022/05/26 10:24:31;;;;;;;3.10;0.80;;;;;;;22.27;47.97;98718.02;433922;1268;110038;-40
2022/05/26 10:34:42;;;;;;;5.70;0.90;;;;;;;22.38;48.33;98717.52;434146;1268;109073;-41
2022/05/26 10:44:53;;;;;;;2.90;1.10;;;;;;;22.40;47.82;98721.16;434054;1267;97884;-40
2022/05/26 10:55:02;;;;;;;1.60;1.40;;;;;;;22.10;47.09;98730.78;434232;1265;110712;-42
2022/05/26 11:25:55;;;;;;;2.60;0.70;;;;;;;22.69;46.05;98713.89;434122;1267;111248;-41
2022/05/26 11:36:09;;;;;;;1.50;0.90;;;;;;;22.04;44.78;98726.06;434441;1264;107997;-43
2022/05/26 11:46:44;;;;;;;2.00;1.00;;;;;;;21.53;44.72;98734.91;434325;1265;97883;-41
2022/05/26 11:56:51;;;;;;;3.10;1.10;;;;;;;21.87;45.70;98723.41;434454;1265;110160;-41
2022/05/26 12:06:58;;;;;;;4.40;1.00;;;;;;;21.96;45.80;98719.90;434220;1264;108834;-40
2022/05/26 12:17:21;;;;;;;;;;;;;;;22.05;45.81;98704.73;434394;1265;98012;-43
2022/05/26 12:28:00;;;;;;;1.20;0.50;;;;;;;22.06;45.80;98713.55;434267;1266;111078;-40
2022/05/26 12:38:22;;;;;;;5.20;0.90;;;;;;;21.46;46.02;98712.98;434184;1267;109486;-42
2022/05/26 12:48:42;;;;;;;2.80;1.00;;;;;;;21.04;46.28;98719.81;434247;1265;97542;-43
2022/05/26 12:58:51;;;;;;;6.00;1.10;;;;;;;21.00;46.32;98719.30;434263;1264;111029;-43
2022/05/26 13:09:02;;;;;;;4.20;1.40;;;;;;;20.72;46.47;98712.23;434105;1266;107278;-42
2022/05/26 13:19:11;;;;;;;3.80;0.90;;;;;;;20.44;47.18;98712.77;434317;1265;98356;-42
2022/05/26 13:29:20;;;;;;;4.80;1.70;;;;;;;20.42;47.96;98707.98;434276;1265;111123;-43
2022/05/26 13:39:25;;;;;;;2.40;1.30;;;;;;;20.44;48.57;98705.52;434265;1265;108797;-44
2022/05/26 13:59:44;;;;;;;7.00;1.20;;;;;;;21.20;48.48;98694.52;434233;1268;110952;-41
2022/05/26 14:10:00;;;;;;;4.00;1.00;;;;;;;21.11;48.14;98693.94;434422;1265;108727;-42
2022/05/26 14:20:18;;;;;;;4.10;1.00;;;;;;;20.96;47.96;98698.06;434342;1265;97872;-43
2022/05/26 14:30:30;;;;;;;;;;;;;;;21.05;47.56;98696.50;434400;1265;111094;-41
2022/05/26 14:40:37;;;;;;;1.50;0.70;;;;;;;21.25;47.54;98692.95;434278;1264;109178;-46
2022/05/26 14:50:47;;;;;;;1.90;0.80;;;;;;;21.31;47.24;98692.55;434330;1264;96663;-43
2022/05/26 15:00:57;;;;;;;1.00;0.90;;;;;;;20.81;46.49;98693.27;434281;1265;111424;-41
2022/05/26 15:11:05;;;;;;;3.20;0.80;;;;;;;20.76;46.99;98690.36;434301;1266;109389;-42
2022/05/26 15:21:12;;;;;;;4.40;1.20;;;;;;;21.14;47.18;98681.73;434169;1267;97973;-44
2022/05/26 15:31:20;;;;;;;4.30;0.90;;;;;;;21.23;47.39;98678.66;434243;1266;111089;-42
2022/05/26 15:41:29;;;;;;;1.90;0.90;;;;;;;20.90;47.88;98681.03;434258;1264;108746;-44
2022/05/26 15:51:37;;;;;;;4.30;1.40;;;;;;;20.48;48.08;98682.19;434409;1264;98416;-41
2022/05/26 16:01:45;;;;;;;2.60;1.20;;;;;;;20.25;48.42;98679.03;434367;1264;111355;-45
2022/05/26 16:11:54;;;;;;;0.80;0.80;;;;;;;20.51;48.52;98682.58;434273;1264;108929;-41
2022/05/26 16:22:03;;;;;;;2.80;0.70;;;;;;;20.45;48.61;98684.02;434376;1265;97946;-42
2022/05/26 16:32:10;;;;;;;1.40;0.90;;;;;;;20.16;49.05;98685.19;434349;1265;110073;-40
2022/05/26 16:42:18;;;;;;;2.00;0.80;;;;;;;19.74;49.41;98684.25;434260;1264;108270;-43
2022/05/26 17:02:32;;;;;;;2.40;0.90;;;;;;;19.13;50.13;98700.05;434362;1265;111011;-42
2022/05/26 17:23:05;;;;;;;5.50;1.50;;;;;;;18.66;50.47;98701.27;434335;1265;96674;-45
2022/05/26 17:33:18;;;;;;;11.00;1.50;;;;;;;18.56;50.81;98699.35;434317;1265;111026;-43
2022/05/26 17:43:25;;;;;;;2.60;0.80;;;;;;;18.55;51.26;98700.59;434224;1265;108951;-44
2022/05/26 17:53:33;;;;;;;3.30;1.60;;;;;;;18.45;51.38;98703.11;434157;1265;97883;-41
2022/05/26 18:03:43;;;;;;;4.60;1.60;;;;;;;18.27;51.77;98708.59;434384;1264;111803;-41
2022/05/26 18:13:51;;;;;;;1.80;1.50;;;;;;;18.13;52.12;98698.77;434384;1267;109108;-42
2022/05/26 18:23:58;;;;;;;5.00;1.90;;;;;;;17.97;52.40;98698.66;434160;1266;97029;-40
2022/05/26 18:34:08;;;;;;;3.90;1.70;;;;;;;17.82;52.83;98699.70;434210;1266;111035;-41
2022/05/26 18:44:16;;;;;;;4.60;2.10;;;;;;;17.62;53.16;98711.68;434359;1263;108918;-41
2022/05/26 18:54:23;;;;;;;2.50;2.10;;;;;;;17.47;53.67;98717.02;434221;1265;97913;-44
2022/05/26 19:04:30;;;;;;;3.30;2.10;;;;;;;17.35;53.88;98725.98;434378;1264;111063;-40
2022/05/26 19:24:47;;;;;;;6.00;2.70;;;;;;;17.07;54.69;98740.79;434440;1265;97890;-43
2022/05/26 19:34:54;;;;;;;7.30;4.50;;;;;;;16.94;54.96;98748.38;434390;1265;111060;-45
2022/05/26 19:45:02;;;;;;;14.40;6.30;;;;;;;16.79;55.52;98750.03;434074;1264;108225;-42
2022/05/26 20:05:38;;;;;;;6.10;4.40;;;;;;;16.61;56.47;98752.56;434266;1265;108974;-41
2022/05/26 20:15:48;;;;;;;9.70;4.30;;;;;;;16.46;56.74;98745.43;434299;1265;98010;-45
2022/05/26 20:36:02;;;;;;;7.40;3.20;;;;;;;16.38;56.90;98738.70;434067;1265;109002;-42
2022/05/26 20:46:10;;;;;;;5.90;2.90;;;;;;;16.60;56.96;98743.12;434312;1265;97901;-41
2022/05/26 20:56:18;;;;;;;4.90;2.70;;;;;;;16.54;57.08;98745.23;434321;1264;108924;-44
2022/05/26 21:06:25;;;;;;;4.70;1.90;;;;;;;16.30;57.11;98754.86;434230;1264;96924;-42
2022/05/26 21:16:33;;;;;;;3.90;2.00;;;;;;;15.96;57.24;98754.42;434128;1263;111014;-43
2022/05/26 21:26:41;;;;;;;4.00;2.50;;;;;;;15.82;57.54;98745.90;434148;1265;351775;-42
2022/05/26 21:36:48;;;;;;;3.10;1.70;;;;;;;15.74;57.70;98733.66;434388;1267;96596;-44
2022/05/26 21:46:54;;;;;;;5.60;2.20;;;;;;;15.63;57.94;98736.39;434259;1265;110676;-43
2022/05/26 21:57:01;;;;;;;4.30;2.10;;;;;;;15.66;58.07;98737.20;434274;1266;108886;-41
2022/05/26 22:17:32;;;;;;;3.60;1.80;;;;;;;15.74;58.20;98732.05;434301;1266;108885;-42
2022/05/26 22:27:42;;;;;;;2.20;1.70;;;;;;;15.77;58.12;98732.06;434427;1265;97887;-41
2022/05/26 22:37:49;;;;;;;6.50;1.60;;;;;;;15.80;58.14;98732.87;434294;1265;111000;-41
2022/05/26 22:47:56;;;;;;;2.00;1.30;;;;;;;15.82;58.16;98727.92;434622;1265;108824;-42
2022/05/26 22:58:05;;;;;;;1.50;1.40;;;;;;;15.83;58.14;98719.98;434427;1264;97870;-44
2022/05/26 23:08:12;;;;;;;3.80;1.80;;;;;;;15.82;58.26;98707.81;434457;1265;111106;-44
2022/05/26 23:18:19;;;;;;;2.30;1.60;;;;;;;15.78;58.07;98700.55;434130;1265;107669;-44
2022/05/26 23:28:26;;;;;;;1.70;1.60;;;;;;;15.75;58.35;98701.83;434257;1265;97046;-41
2022/05/26 23:38:33;;;;;;;2.50;1.60;;;;;;;15.73;58.40;98700.64;434130;1265;110964;-43
2022/05/26 23:48:41;;;;;;;3.90;2.20;;;;;;;15.66;58.53;98700.30;434264;1267;108747;-41
2022/05/26 23:58:50;;;;;;;3.30;1.90;;;;;;;15.61;58.55;98688.66;434220;1268;97904;-41
